createdAt,value
2018-04-19T00:01:27.588Z,97547.59
2018-04-19T00:03:55.236Z,97548.03
2018-04-19T00:06:22.889Z,97551.72
2018-04-19T00:08:50.665Z,97558.07
2018-04-19T00:11:18.406Z,97555.00
2018-04-19T00:13:46.131Z,97548.73
2018-04-19T00:16:13.793Z,97552.75
2018-04-19T00:18:41.436Z,97556.80
2018-04-19T00:21:09.836Z,97553.92
2018-04-19T00:23:37.464Z,97556.52
2018-04-19T00:26:05.013Z,97554.25
2018-04-19T00:28:32.634Z,97557.50
2018-04-19T00:31:00.280Z,97551.91
2018-04-19T00:33:27.963Z,97555.56
2018-04-19T00:35:55.571Z,97545.66
2018-04-19T00:38:23.200Z,97541.51
2018-04-19T00:40:50.836Z,97539.11
2018-04-19T00:43:20.568Z,97540.23
2018-04-19T00:45:48.251Z,97542.75
2018-04-19T00:48:15.879Z,97544.87
2018-04-19T00:50:43.505Z,97545.41
2018-04-19T00:53:12.164Z,97544.75
2018-04-19T00:55:39.793Z,97538.48
2018-04-19T00:58:07.480Z,97545.27
2018-04-19T01:00:35.059Z,97541.77
2018-04-19T01:03:02.740Z,97540.31
2018-04-19T01:05:30.704Z,97529.69
2018-04-19T01:07:58.382Z,97534.14
2018-04-19T01:10:25.970Z,97529.91
2018-04-19T01:12:53.616Z,97544.97
2018-04-19T01:17:48.857Z,97548.38
2018-04-19T01:20:16.507Z,97546.20
2018-04-19T01:22:44.131Z,97542.26
2018-04-19T01:25:13.343Z,97541.88
2018-04-19T01:27:40.960Z,97550.55
2018-04-19T01:30:08.628Z,97543.62
2018-04-19T01:32:36.255Z,97548.52
2018-04-19T01:35:03.852Z,97544.07
2018-04-19T01:37:31.450Z,97540.48
2018-04-19T01:39:59.077Z,97544.41
2018-04-19T01:42:26.648Z,97546.39
2018-04-19T01:44:54.238Z,97547.43
2018-04-19T01:47:22.008Z,97547.07
2018-04-19T01:49:49.594Z,97547.60
2018-04-19T01:52:17.162Z,97552.45
2018-04-19T01:54:44.703Z,97546.05
2018-04-19T01:57:12.485Z,97548.77
2018-04-19T01:59:39.993Z,97545.44
2018-04-19T02:02:08.033Z,97546.15
2018-04-19T02:04:35.664Z,97548.48
2018-04-19T02:07:03.247Z,97550.03
2018-04-19T02:09:30.896Z,97545.54
2018-04-19T02:11:58.476Z,97539.18
2018-04-19T02:14:26.114Z,97552.20
2018-04-19T02:16:53.777Z,97547.36
2018-04-19T02:19:22.379Z,97548.15
2018-04-19T02:21:49.954Z,97548.09
2018-04-19T02:24:17.524Z,97547.16
2018-04-19T02:26:45.040Z,97550.30
2018-04-19T02:29:12.791Z,97546.23
2018-04-19T02:31:40.412Z,97540.75
2018-04-19T02:34:07.939Z,97544.80
2018-04-19T02:36:35.594Z,97543.09
2018-04-19T02:39:03.166Z,97541.91
2018-04-19T02:41:30.900Z,97540.83
2018-04-19T02:43:58.430Z,97535.65
2018-04-19T02:46:26.059Z,97535.05
2018-04-19T02:48:53.625Z,97538.39
2018-04-19T02:51:21.160Z,97535.83
2018-04-19T02:53:49.004Z,97534.86
2018-04-19T02:56:17.004Z,97532.73
2018-04-19T02:58:44.953Z,97531.77
2018-04-19T03:01:12.526Z,97533.25
2018-04-19T03:03:40.160Z,97537.73
2018-04-19T03:06:07.767Z,97526.92
2018-04-19T03:08:35.363Z,97527.96
2018-04-19T03:11:02.967Z,97532.44
2018-04-19T03:13:30.758Z,97527.41
2018-04-19T03:15:58.412Z,97536.95
2018-04-19T03:18:26.081Z,97528.92
2018-04-19T03:20:53.727Z,97530.02
2018-04-19T03:23:21.318Z,97536.06
2018-04-19T03:25:48.935Z,97527.23
2018-04-19T03:28:16.582Z,97530.98
2018-04-19T03:30:44.198Z,97535.80
2018-04-19T03:33:13.350Z,97537.06
2018-04-19T03:35:40.964Z,97539.23
2018-04-19T03:38:08.536Z,97541.23
2018-04-19T03:40:36.118Z,97535.25
2018-04-19T03:43:03.769Z,97535.89
2018-04-19T03:45:31.290Z,97536.17
2018-04-19T03:47:58.813Z,97534.64
2018-04-19T03:50:26.352Z,97534.36
2018-04-19T03:52:53.853Z,97533.80
2018-04-19T03:55:21.408Z,97533.72
2018-04-19T04:00:20.686Z,97524.70
2018-04-19T04:02:48.337Z,97530.88
2018-04-19T04:05:15.862Z,97523.64
2018-04-19T04:07:43.385Z,97521.25
2018-04-19T04:10:10.976Z,97526.70
2018-04-19T04:12:38.547Z,97529.30
2018-04-19T04:15:06.206Z,97530.91
2018-04-19T04:17:45.446Z,97523.73
2018-04-19T04:20:24.721Z,97528.59
2018-04-19T04:23:04.985Z,97536.33
2018-04-19T04:25:32.611Z,97530.27
2018-04-19T04:28:00.246Z,97531.41
2018-04-19T04:30:27.886Z,97527.96
2018-04-19T04:32:55.552Z,97533.33
2018-04-19T04:35:23.213Z,97528.55
2018-04-19T04:37:50.828Z,97532.16
2018-04-19T04:40:18.469Z,97535.50
2018-04-19T04:42:46.102Z,97546.41
2018-04-19T04:45:13.682Z,97543.60
2018-04-19T04:47:41.353Z,97541.73
2018-04-19T04:50:08.934Z,97544.52
2018-04-19T04:52:36.516Z,97540.79
2018-04-19T04:55:04.113Z,97541.32
2018-04-19T04:57:31.780Z,97543.46
2018-04-19T04:59:59.371Z,97545.02
2018-04-19T05:02:27.058Z,97539.78
2018-04-19T05:04:54.653Z,97536.10
2018-04-19T05:07:23.058Z,97536.27
2018-04-19T05:09:50.695Z,97535.74
2018-04-19T05:12:18.389Z,97536.41
2018-04-19T05:14:46.024Z,97533.06
2018-04-19T05:17:13.688Z,97540.91
2018-04-19T05:19:41.300Z,97539.14
2018-04-19T05:22:08.908Z,97538.94
2018-04-19T05:24:36.473Z,97537.51
2018-04-19T05:27:04.168Z,97530.30
2018-04-19T05:29:31.797Z,97532.55
2018-04-19T05:31:59.429Z,97528.30
2018-04-19T05:34:27.090Z,97535.63
2018-04-19T05:36:54.716Z,97531.64
2018-04-19T05:39:22.340Z,97527.47
2018-04-19T05:41:50.034Z,97525.88
2018-04-19T05:44:17.551Z,97527.78
2018-04-19T05:46:45.112Z,97524.81
2018-04-19T05:49:12.747Z,97517.84
2018-04-19T05:51:40.392Z,97519.44
2018-04-19T05:54:08.077Z,97523.92
2018-04-19T05:56:35.783Z,97520.57
2018-04-19T05:59:03.372Z,97521.52
2018-04-19T06:01:30.977Z,97522.96
2018-04-19T06:03:58.683Z,97522.77
2018-04-19T06:06:26.339Z,97521.22
2018-04-19T06:08:54.011Z,97519.73
2018-04-19T06:11:25.013Z,97519.95
2018-04-19T06:13:52.679Z,97524.36
2018-04-19T06:16:20.349Z,97522.80
2018-04-19T06:18:47.939Z,97522.51
2018-04-19T06:21:15.552Z,97516.42
2018-04-19T06:23:43.149Z,97515.53
2018-04-19T06:26:10.795Z,97513.66
2018-04-19T06:28:38.415Z,97516.69
2018-04-19T06:31:06.359Z,97518.59
2018-04-19T06:33:34.217Z,97508.98
2018-04-19T06:36:01.928Z,97520.33
2018-04-19T06:38:29.659Z,97520.92
2018-04-19T06:40:57.316Z,97510.84
2018-04-19T06:43:24.918Z,97509.70
2018-04-19T06:45:52.553Z,97506.91
2018-04-19T06:48:20.214Z,97504.12
2018-04-19T06:50:47.826Z,97499.98
2018-04-19T06:53:15.632Z,97502.60
2018-04-19T06:55:43.306Z,97498.38
2018-04-19T06:58:10.959Z,97501.11
2018-04-19T07:00:38.710Z,97494.64
2018-04-19T07:03:06.339Z,97496.84
2018-04-19T07:05:34.178Z,97502.27
2018-04-19T07:08:01.795Z,97497.06
2018-04-19T07:10:29.401Z,97495.67
2018-04-19T07:12:57.049Z,97491.77
2018-04-19T07:15:24.977Z,97496.82
2018-04-19T07:17:52.633Z,97486.08
2018-04-19T07:20:20.301Z,97487.91
2018-04-19T07:22:47.958Z,97490.08
2018-04-19T07:25:15.586Z,97489.84
2018-04-19T07:27:43.272Z,97494.14
2018-04-19T07:30:10.900Z,97490.14
2018-04-19T07:32:38.552Z,97487.84
2018-04-19T07:35:06.424Z,97489.52
2018-04-19T07:37:34.090Z,97493.96
2018-04-19T07:40:01.720Z,97484.73
2018-04-19T07:42:29.409Z,97487.03
2018-04-19T07:44:57.056Z,97479.91
2018-04-19T07:47:24.697Z,97483.95
2018-04-19T07:49:52.385Z,97486.91
2018-04-19T07:52:19.983Z,97499.80
2018-04-19T07:54:47.585Z,97488.02
2018-04-19T07:57:15.550Z,97489.27
2018-04-19T07:59:43.285Z,97481.77
2018-04-19T08:02:10.956Z,97485.58
2018-04-19T08:04:38.582Z,97483.54
2018-04-19T08:07:06.237Z,97489.41
2018-04-19T08:09:33.977Z,97486.89
2018-04-19T08:12:01.689Z,97489.53
2018-04-19T08:14:29.353Z,97486.77
2018-04-19T08:16:56.993Z,97486.21
2018-04-19T08:19:24.624Z,97479.34
2018-04-19T08:21:52.347Z,97483.44
2018-04-19T08:24:20.016Z,97484.42
2018-04-19T08:26:48.614Z,97487.42
2018-04-19T08:29:16.251Z,97485.86
2018-04-19T08:31:46.991Z,97493.11
2018-04-19T08:34:14.784Z,97496.19
2018-04-19T08:36:43.423Z,97489.77
2018-04-19T08:39:11.887Z,97483.25
2018-04-19T08:41:39.846Z,97483.50
2018-04-19T08:44:07.440Z,97485.03
2018-04-19T08:46:35.170Z,97484.61
2018-04-19T08:49:02.787Z,97484.72
2018-04-19T08:51:30.367Z,97482.44
2018-04-19T08:53:58.748Z,97484.85
2018-04-19T08:56:27.151Z,97484.91
2018-04-19T08:58:57.869Z,97450.23
2018-04-19T09:01:25.548Z,97481.66
2018-04-19T09:03:53.175Z,97481.03
2018-04-19T09:06:21.420Z,97480.20
2018-04-19T09:08:49.107Z,97486.88
2018-04-19T09:11:17.329Z,97479.77
2018-04-19T09:13:44.998Z,97476.28
2018-04-19T09:16:12.579Z,97476.05
2018-04-19T09:18:40.247Z,97467.84
2018-04-19T09:21:07.921Z,97470.73
2018-04-19T09:23:37.988Z,97467.42
2018-04-19T09:26:05.626Z,97468.81
2018-04-19T09:28:35.461Z,97467.83
2018-04-19T09:31:03.086Z,97456.49
2018-04-19T09:33:34.488Z,97460.97
2018-04-19T09:36:02.153Z,97453.13
2018-04-19T09:38:30.064Z,97447.94
2018-04-19T09:40:58.422Z,97451.46
2018-04-19T09:43:26.214Z,97447.97
2018-04-19T09:45:53.821Z,97448.20
2018-04-19T09:48:21.396Z,97450.09
2018-04-19T09:50:49.102Z,97444.70
2018-04-19T09:53:16.945Z,97448.31
2018-04-19T09:55:44.622Z,97437.78
2018-04-19T09:58:12.345Z,97444.14
2018-04-19T10:00:45.695Z,97436.22
2018-04-19T10:03:19.134Z,97433.59
2018-04-19T10:05:47.791Z,97433.03
2018-04-19T10:08:15.415Z,97432.70
2018-04-19T10:10:43.033Z,97432.12
2018-04-19T10:13:10.675Z,97424.91
2018-04-19T10:15:38.426Z,97436.62
2018-04-19T10:18:07.369Z,97430.48
2018-04-19T10:20:34.973Z,97422.14
2018-04-19T10:23:03.797Z,97419.26
2018-04-19T10:25:31.508Z,97423.67
2018-04-19T10:27:59.160Z,97416.75
2018-04-19T10:30:26.909Z,97422.18
2018-04-19T10:32:54.569Z,97420.72
2018-04-19T10:35:24.219Z,97417.13
2018-04-19T10:37:52.084Z,97414.91
2018-04-19T10:40:19.664Z,97411.30
2018-04-19T10:42:47.267Z,97406.27
2018-04-19T10:45:20.715Z,97408.67
2018-04-19T10:47:48.390Z,97410.92
2018-04-19T10:50:16.058Z,97400.88
2018-04-19T10:52:54.030Z,97399.92
2018-04-19T10:55:21.768Z,97403.73
2018-04-19T10:57:49.463Z,97396.44
2018-04-19T11:00:17.111Z,97396.21
2018-04-19T11:02:44.847Z,97391.15
2018-04-19T11:05:12.645Z,97394.44
2018-04-19T11:07:40.459Z,97390.73
2018-04-19T11:10:08.235Z,97384.40
2018-04-19T11:12:36.716Z,97384.44
2018-04-19T11:15:04.318Z,97381.00
2018-04-19T11:17:31.916Z,97381.23
2018-04-19T11:19:59.482Z,97385.09
2018-04-19T11:22:29.196Z,97382.50
2018-04-19T11:24:59.895Z,97381.60
2018-04-19T11:27:27.635Z,97372.50
2018-04-19T11:29:57.869Z,97373.49
2018-04-19T11:32:26.288Z,97376.98
2018-04-19T11:34:56.849Z,97375.41
2018-04-19T11:37:24.451Z,97373.45
2018-04-19T11:39:52.089Z,97374.25
2018-04-19T11:42:19.718Z,97375.48
2018-04-19T11:44:47.344Z,97370.63
2018-04-19T11:47:14.952Z,97361.98
2018-04-19T11:49:42.545Z,97357.84
2018-04-19T11:52:10.246Z,97361.44
2018-04-19T11:54:37.916Z,97364.10
2018-04-19T11:57:05.587Z,97363.72
2018-04-19T11:59:33.434Z,97353.14
2018-04-19T12:02:01.066Z,97361.69
2018-04-19T12:04:28.763Z,97357.09
2018-04-19T12:06:56.366Z,97352.77
2018-04-19T12:09:24.033Z,97350.61
2018-04-19T12:11:51.688Z,97347.14
2018-04-19T12:14:19.340Z,97338.38
2018-04-19T12:16:48.616Z,97346.58
2018-04-19T12:19:16.280Z,97340.72
2018-04-19T12:21:43.832Z,97338.05
2018-04-19T12:24:11.520Z,97341.79
2018-04-19T12:26:39.154Z,97347.66
2018-04-19T12:29:06.920Z,97336.57
2018-04-19T12:31:34.648Z,97338.72
2018-04-19T12:34:02.260Z,97334.88
2018-04-19T12:36:29.946Z,97330.70
2018-04-19T12:38:57.559Z,97331.77
2018-04-19T12:41:25.619Z,97329.16
2018-04-19T12:43:53.247Z,97327.64
2018-04-19T12:46:20.817Z,97321.50
2018-04-19T12:48:48.536Z,97319.03
2018-04-19T12:51:17.190Z,97316.02
2018-04-19T12:53:44.811Z,97314.29
2018-04-19T12:56:12.515Z,97308.39
2018-04-19T12:58:44.013Z,97310.92
2018-04-19T13:01:12.332Z,97307.10
2018-04-19T13:03:41.004Z,97298.70
2018-04-19T13:06:08.576Z,97294.23
2018-04-19T13:08:36.271Z,97298.97
2018-04-19T13:11:03.881Z,97289.34
2018-04-19T13:13:31.645Z,97294.62
2018-04-19T13:18:33.195Z,97285.27
2018-04-19T13:21:00.812Z,97279.70
2018-04-19T13:23:28.419Z,97277.38
2018-04-19T13:25:56.193Z,97272.91
2018-04-19T13:28:23.820Z,97251.89
2018-04-19T13:30:52.115Z,97267.52
2018-04-19T13:33:19.728Z,97274.11
2018-04-19T13:35:47.683Z,97263.47
2018-04-19T13:38:15.327Z,97268.33
2018-04-19T13:40:42.899Z,97263.05
2018-04-19T13:43:10.505Z,97259.30
2018-04-19T13:45:38.662Z,97258.71
2018-04-19T13:48:06.347Z,97258.30
2018-04-19T13:50:33.979Z,97258.30
2018-04-19T13:53:01.788Z,97250.67
2018-04-19T13:55:29.564Z,97246.64
2018-04-19T13:57:57.338Z,97241.33
2018-04-19T14:00:24.988Z,97250.64
2018-04-19T14:02:53.139Z,97240.54
2018-04-19T14:05:20.908Z,97237.45
2018-04-19T14:08:00.209Z,97232.42
2018-04-19T14:10:28.860Z,97221.36
2018-04-19T14:12:56.513Z,97229.67
2018-04-19T14:15:24.306Z,97228.76
2018-04-19T14:17:51.943Z,97227.32
2018-04-19T14:20:19.546Z,97230.60
2018-04-19T14:22:47.170Z,97227.95
2018-04-19T14:25:14.906Z,97225.11
2018-04-19T14:27:42.489Z,97217.28
2018-04-19T14:30:10.170Z,97220.34
2018-04-19T14:32:37.824Z,97216.88
2018-04-19T14:35:05.502Z,97216.47
2018-04-19T14:37:33.346Z,97215.36
2018-04-19T14:40:00.936Z,97206.85
2018-04-19T14:42:28.528Z,97209.48
2018-04-19T14:44:56.122Z,97203.30
2018-04-19T14:47:23.798Z,97203.08
2018-04-19T14:49:51.431Z,97209.06
2018-04-19T14:52:19.027Z,97209.61
2018-04-19T14:54:46.650Z,97209.19
2018-04-19T14:57:14.243Z,97210.91
2018-04-19T14:59:41.948Z,97206.97
2018-04-19T15:02:09.554Z,97212.04
2018-04-19T15:04:37.144Z,97202.73
2018-04-19T15:07:04.795Z,97205.37
2018-04-19T15:09:32.484Z,97199.22
2018-04-19T15:12:00.101Z,97202.03
2018-04-19T15:14:27.679Z,97197.94
2018-04-19T15:16:55.269Z,97202.88
2018-04-19T15:19:23.015Z,97199.33
2018-04-19T15:21:50.611Z,97198.63
2018-04-19T15:24:18.201Z,97201.83
2018-04-19T15:26:45.876Z,97192.88
2018-04-19T15:29:13.911Z,97191.83
2018-04-19T15:31:41.867Z,97197.42
2018-04-19T15:34:09.437Z,97191.38
2018-04-19T15:36:37.108Z,97194.23
2018-04-19T15:39:05.508Z,97185.75
2018-04-19T15:41:33.165Z,97186.20
2018-04-19T15:44:00.747Z,97182.53
2018-04-19T15:46:28.535Z,97187.37
2018-04-19T15:48:56.099Z,97182.67
2018-04-19T15:51:23.694Z,97187.37
2018-04-19T15:53:51.359Z,97183.52
2018-04-19T15:56:18.944Z,97183.53
2018-04-19T15:58:46.584Z,97179.38
2018-04-19T16:01:14.149Z,97176.02
2018-04-19T16:03:46.138Z,97175.30
2018-04-19T16:06:13.809Z,97172.80
2018-04-19T16:08:41.402Z,97169.69
2018-04-19T16:11:11.288Z,97171.30
2018-04-19T16:13:38.971Z,97171.44
2018-04-19T16:16:06.635Z,97167.57
2018-04-19T16:18:34.327Z,97161.40
2018-04-19T16:21:01.914Z,97161.11
2018-04-19T16:23:29.478Z,97163.56
2018-04-19T16:25:57.101Z,97159.53
2018-04-19T16:28:25.280Z,97154.42
2018-04-19T16:30:52.880Z,97151.06
2018-04-19T16:33:21.344Z,97154.43
2018-04-19T16:35:48.922Z,97157.66
2018-04-19T16:38:16.526Z,97157.70
2018-04-19T16:40:44.156Z,97151.28
2018-04-19T16:43:12.010Z,97149.09
2018-04-19T16:45:39.808Z,97155.45
2018-04-19T16:48:07.393Z,97148.64
2018-04-19T16:50:34.991Z,97150.77
2018-04-19T16:53:02.738Z,97148.54
2018-04-19T16:55:30.600Z,97149.57
2018-04-19T16:57:58.795Z,97151.88
2018-04-19T17:00:26.429Z,97151.27
2018-04-19T17:02:54.004Z,97149.97
2018-04-19T17:05:23.166Z,97154.97
2018-04-19T17:07:51.224Z,97147.53
2018-04-19T17:10:18.964Z,97148.19
2018-04-19T17:12:46.618Z,97149.28
2018-04-19T17:15:14.355Z,97152.20
2018-04-19T17:17:41.920Z,97155.04
2018-04-19T17:20:09.476Z,97149.23
2018-04-19T17:22:37.014Z,97159.88
2018-04-19T17:27:36.386Z,97158.14
2018-04-19T17:30:04.101Z,97156.52
2018-04-19T17:32:32.039Z,97157.89
2018-04-19T17:34:59.651Z,97161.67
2018-04-19T17:37:27.424Z,97160.35
2018-04-19T17:39:55.460Z,97165.31
2018-04-19T17:42:23.100Z,97160.66
2018-04-19T17:44:50.743Z,97167.90
2018-04-19T17:47:18.348Z,97169.77
2018-04-19T17:49:46.178Z,97164.55
2018-04-19T17:52:13.797Z,97171.69
2018-04-19T17:54:41.554Z,97173.83
2018-04-19T17:57:09.341Z,97176.91
2018-04-19T17:59:37.047Z,97174.13
2018-04-19T18:02:05.069Z,97177.14
2018-04-19T18:04:32.765Z,97175.27
2018-04-19T18:07:00.477Z,97179.01
2018-04-19T18:09:28.215Z,97184.77
2018-04-19T18:11:55.936Z,97185.81
2018-04-19T18:14:23.800Z,97187.56
2018-04-19T18:16:51.527Z,97189.05
2018-04-19T18:19:19.508Z,97195.41
2018-04-19T18:21:47.448Z,97201.74
2018-04-19T18:24:15.095Z,97201.85
2018-04-19T18:26:42.715Z,97207.13
2018-04-19T18:29:11.971Z,97205.44
2018-04-19T18:31:39.736Z,97204.66
2018-04-19T18:34:07.458Z,97209.55
2018-04-19T18:36:35.153Z,97212.63
2018-04-19T18:39:02.793Z,97215.40
2018-04-19T18:41:30.503Z,97211.58
2018-04-19T18:43:58.741Z,97206.94
2018-04-19T18:46:26.419Z,97215.86
2018-04-19T18:48:54.180Z,97218.81
2018-04-19T18:51:22.124Z,97218.34
2018-04-19T18:53:49.790Z,97208.28
2018-04-19T18:56:17.388Z,97221.27
2018-04-19T18:58:45.277Z,97218.29
2018-04-19T19:01:13.048Z,97215.49
2018-04-19T19:03:40.752Z,97210.47
2018-04-19T19:06:08.440Z,97216.61
2018-04-19T19:08:36.199Z,97217.19
2018-04-19T19:11:04.004Z,97222.79
2018-04-19T19:13:31.842Z,97222.25
2018-04-19T19:16:14.438Z,97218.04
2018-04-19T19:18:53.932Z,97218.19
2018-04-19T19:21:21.620Z,97217.42
2018-04-19T19:23:49.515Z,97223.70
2018-04-19T19:26:17.290Z,97224.45
2018-04-19T19:28:44.931Z,97221.86
2018-04-19T19:31:12.696Z,97226.17
2018-04-19T19:33:40.388Z,97224.34
2018-04-19T19:36:08.139Z,97222.41
2018-04-19T19:38:36.108Z,97223.09
2018-04-19T19:41:03.811Z,97228.69
2018-04-19T19:43:32.695Z,97230.89
2018-04-19T19:46:00.383Z,97230.56
2018-04-19T19:48:29.361Z,97226.34
2018-04-19T19:50:57.080Z,97233.81
2018-04-19T19:53:24.706Z,97232.86
2018-04-19T19:55:52.615Z,97228.80
2018-04-19T19:58:20.500Z,97229.33
2018-04-19T20:00:48.286Z,97235.94
2018-04-19T20:05:54.950Z,97233.14
2018-04-19T20:08:22.781Z,97232.81
2018-04-19T20:10:50.408Z,97231.66
2018-04-19T20:13:18.056Z,97228.89
2018-04-19T20:15:45.943Z,97225.83
2018-04-19T20:18:13.557Z,97219.48
2018-04-19T20:20:41.200Z,97220.09
2018-04-19T20:23:09.180Z,97226.34
2018-04-19T20:25:36.871Z,97224.23
2018-04-19T20:28:04.600Z,97224.22
2018-04-19T20:30:32.357Z,97228.83
2018-04-19T20:33:00.759Z,97226.16
2018-04-19T20:35:28.356Z,97228.06
2018-04-19T20:37:55.983Z,97229.24
2018-04-19T20:40:23.699Z,97229.34
2018-04-19T20:42:51.409Z,97231.52
2018-04-19T20:45:20.763Z,97229.55
2018-04-19T20:47:48.436Z,97231.06
2018-04-19T20:50:16.153Z,97228.96
2018-04-19T20:52:43.761Z,97225.20
2018-04-19T20:55:11.533Z,97229.52
2018-04-19T20:57:39.126Z,97227.95
2018-04-19T21:00:06.787Z,97224.38
2018-04-19T21:02:34.497Z,97225.10
2018-04-19T21:05:02.149Z,97227.20
2018-04-19T21:07:29.901Z,97227.61
2018-04-19T21:09:57.586Z,97230.66
2018-04-19T21:12:25.568Z,97226.20
2018-04-19T21:14:53.214Z,97227.31
2018-04-19T21:17:21.582Z,97225.38
2018-04-19T21:19:49.272Z,97226.31
2018-04-19T21:22:16.930Z,97223.10
2018-04-19T21:24:44.606Z,97226.70
2018-04-19T21:27:12.173Z,97230.39
2018-04-19T21:29:39.776Z,97233.44
2018-04-19T21:32:07.464Z,97233.34
2018-04-19T21:34:35.120Z,97229.98
2018-04-19T21:37:02.736Z,97233.57
2018-04-19T21:39:30.439Z,97235.48
2018-04-19T21:41:58.103Z,97233.20
2018-04-19T21:44:25.694Z,97230.19
2018-04-19T21:46:53.312Z,97227.85
2018-04-19T21:49:21.036Z,97225.77
2018-04-19T21:51:48.658Z,97225.64
2018-04-19T21:54:16.207Z,97219.73
2018-04-19T21:56:43.888Z,97225.98
2018-04-19T21:59:11.445Z,97222.41
2018-04-19T22:01:38.973Z,97228.50
2018-04-19T22:04:06.515Z,97231.91
2018-04-19T22:06:34.184Z,97227.16
2018-04-19T22:09:01.705Z,97221.13
2018-04-19T22:11:29.281Z,97228.88
2018-04-19T22:13:56.873Z,97230.41
2018-04-19T22:16:24.439Z,97224.29
2018-04-19T22:18:52.000Z,97224.78
2018-04-19T22:21:19.862Z,97224.20
2018-04-19T22:23:47.543Z,97221.79
2018-04-19T22:26:15.115Z,97220.38
2018-04-19T22:28:42.828Z,97221.38
2018-04-19T22:31:10.443Z,97214.91
2018-04-19T22:33:38.104Z,97218.95
2018-04-19T22:36:05.738Z,97212.58
2018-04-19T22:38:33.397Z,97218.73
2018-04-19T22:41:01.106Z,97216.98
2018-04-19T22:43:28.783Z,97215.81
2018-04-19T22:45:56.501Z,97218.69
2018-04-19T22:48:24.165Z,97216.09
2018-04-19T22:50:51.809Z,97216.27
2018-04-19T22:53:19.474Z,97215.09
2018-04-19T22:55:47.044Z,97213.27
2018-04-19T22:58:14.561Z,97209.69
2018-04-19T23:00:42.060Z,97209.48
2018-04-19T23:03:10.181Z,97209.42
2018-04-19T23:05:37.848Z,97201.55
2018-04-19T23:08:05.451Z,97209.70
2018-04-19T23:10:33.113Z,97206.64
2018-04-19T23:13:00.709Z,97207.33
2018-04-19T23:15:28.287Z,97185.56
2018-04-19T23:17:55.949Z,97209.03
2018-04-19T23:20:23.526Z,97205.56
2018-04-19T23:22:51.052Z,97205.36
2018-04-19T23:25:18.685Z,97205.69
2018-04-19T23:27:46.296Z,97206.06
2018-04-19T23:30:13.872Z,97206.80
2018-04-19T23:32:41.526Z,97202.28
2018-04-19T23:35:09.790Z,97198.56
2018-04-19T23:37:37.502Z,97211.41
2018-04-19T23:40:04.981Z,97204.25
2018-04-19T23:42:32.545Z,97198.98
2018-04-19T23:45:00.060Z,97194.30
2018-04-19T23:47:27.866Z,97196.20
2018-04-19T23:49:55.524Z,97195.77
2018-04-19T23:52:23.148Z,97197.09
2018-04-19T23:54:50.749Z,97201.20
2018-04-19T23:57:18.428Z,97196.28
2018-04-19T23:59:46.054Z,97196.22
